Flight Track Log - Related Links

Times and Time Zones

All times are in EDT time to prevent confusion due to time zone crossing. See the SWA1143 flight status page for this flight to view local times or setup timezone preferences in your user account.

Time Position Orientation Groundspeed Altitude Reporting Facility
EDT Latitude Longitude Course Direction KTS MPH feet Rate Location/Type
Tue 10:23:59 PM 39.2833 -94.7000 86° East 155 178 1,600  Level Kansas City TRACON
Tue 10:25:07 PM 39.2867 -94.6344 86° East 186 214 4,200 2,651 Climbing Kansas City Center
Tue 10:26:08 PM 39.3014 -94.5333 79° East 270 311 7,300 3,246 Climbing Kansas City Center
Tue 10:27:09 PM 39.3167 -94.4333 79° East 293 337 10,800 3,707 Climbing Kansas City Center
Tue 10:28:11 PM 39.3364 -94.2967 79° East 349 402 14,900 4,000 Climbing Kansas City Center
Tue 10:29:12 PM 39.3550 -94.1731 79° East 365 420 19,000 3,689 Climbing Kansas City Center
Tue 10:30:13 PM 39.3736 -94.0433 79° East 383 441 22,400 3,415 Climbing Kansas City Center
Tue 10:31:15 PM 39.3964 -93.8817 80° East 408 470 26,000 3,171 Climbing Kansas City Center
Tue 10:32:16 PM 39.4142 -93.7214 82° East 424 488 28,900 2,607 Climbing Kansas City Center
Tue 10:33:17 PM 39.4350 -93.5625 80° East 442 509 31,300 2,341 Climbing Kansas City Center
Tue 10:34:19 PM 39.4539 -93.4011 81° East 453 521 33,700 2,439 Climbing Kansas City Center
Tue 10:35:20 PM 39.4644 -93.2425 85° East 451 519 36,300 2,361 Climbing Kansas City Center
Tue 10:36:21 PM 39.4764 -93.0875 84° East 442 509 38,500 1,820 Climbing Kansas City Center
Tue 10:37:22 PM 39.4889 -92.9308 84° East 442 509 40,000 732 Climbing Kansas City Center
Tue 10:38:24 PM 39.5003 -92.7767 84° East 440 506 40,000 244 Level Kansas City Center
Tue 10:39:25 PM 39.5150 -92.5939 84° East 434 499 40,500 492 Climbing Kansas City Center
Tue 10:40:26 PM 39.5272 -92.4342 84° East 444 511 41,000 -98 Climbing Kansas City Center
Tue 10:41:27 PM 39.5378 -92.2719 85° East 453 521 40,300 -780 Descending Kansas City Center
Tue 10:42:29 PM 39.5486 -92.1172 85° East 445 512 39,400 -634 Descending Kansas City Center
Tue 10:43:30 PM 39.5597 -91.9619 85° East 441 507 39,000 -197 Descending Kansas City Center
Tue 10:44:31 PM 39.5711 -91.8047 85° East 441 507 39,000  Level Kansas City Center
Tue 10:45:32 PM 39.5819 -91.6486 85° East 442 509 39,000  Level Kansas City Center
Tue 10:46:33 PM 39.5936 -91.4614 85° East 441 507 39,000  Level Kansas City Center
Tue 10:47:34 PM 39.6042 -91.3047 85° East 441 507 39,000  Level Kansas City Center
Tue 10:48:35 PM 39.6144 -91.1392 85° East 441 507 39,000  Level Kansas City Center
Tue 10:49:36 PM 39.6244 -90.9778 85° East 446 513 39,000  Level Kansas City Center
Tue 10:50:37 PM 39.6347 -90.8192 85° East 443 510 39,000  Level Kansas City Center
Tue 10:51:38 PM 39.6439 -90.6603 86° East 442 509 39,000 -754 Level Kansas City Center
Tue 10:53:40 PM 39.6614 -90.3414 86° East 443 510 36,700 -1,207 Descending Kansas City Center
Tue 10:54:42 PM 39.6711 -90.1789 86° East 448 516 35,300 -829 Descending Kansas City Center
Tue 10:55:43 PM 39.6794 -90.0139 86° East 454 522 35,000 -148 Descending Kansas City Center
Tue 10:56:44 PM 39.6881 -89.8506 86° East 454 522 35,000  Level Kansas City Center
Tue 10:57:45 PM 39.6956 -89.6886 87° East 451 519 35,000  Level Kansas City Center
Tue 10:58:46 PM 39.7036 -89.5272 86° East 451 519 35,000  Level Kansas City Center
Tue 10:59:47 PM 39.7117 -89.3606 86° East 446 513 35,000  Level Kansas City Center
Tue 11:00:48 PM 39.7192 -89.1989 86° East 447 514 35,000  Level Kansas City Center
Tue 11:01:49 PM 39.7267 -89.0386 86° East 448 516 35,000  Level Kansas City Center
Tue 11:02:50 PM 39.7336 -88.8783 87° East 447 514 35,000 -1,082 Level Kansas City Center
Tue 11:03:51 PM 39.7400 -88.7172 87° East 447 514 32,800 -2,754 Descending Kansas City Center
Tue 11:04:52 PM 39.7489 -88.5278 86° East 440 506 29,400 -2,975 Descending Kansas City Center
Tue 11:05:52 PM 39.7564 -88.3744 86° East 431 496 26,800 -2,529 Descending Kansas City Center
Tue 11:06:53 PM 39.7622 -88.2300 87° East 414 476 24,300 -1,377 Descending Kansas City Center
Tue 11:07:54 PM 39.7669 -88.0964 87° East 402 463 24,000 -225 Descending Kansas City Center
Tue 11:08:13 PM 39.7667 -88.0475 90° East 396 456 24,000  Level Indianapolis Center
Tue 11:09:14 PM 39.7719 -87.9017 87° East 401 461 24,000  Level Indianapolis Center
Tue 11:10:16 PM 39.7764 -87.7553 88° East 403 464 24,000 -634 Level Indianapolis Center
Tue 11:11:17 PM 39.7806 -87.6092 88° East 403 464 22,700 -1,820 Descending Indianapolis Center
Tue 11:12:18 PM 39.7858 -87.4706 87° East 387 445 20,300 -2,361 Descending Indianapolis Center
Tue 11:13:19 PM 39.7906 -87.3386 87° East 369 425 17,900 -2,341 Descending Indianapolis Center
Tue 11:14:21 PM 39.7931 -87.2075 89° East 363 418 15,500 -2,341 Descending Indianapolis Center
Tue 11:15:22 PM 39.7972 -87.0819 87° East 350 403 13,100 -1,721 Descending Indianapolis Center
Tue 11:16:23 PM 39.8072 -86.9422 85° East 334 384 12,000 -541 Descending Indianapolis Center
Tue 11:17:24 PM 39.8189 -86.8250 83° East 327 376 12,000 -246 Level Indianapolis Center
Tue 11:18:25 PM 39.8306 -86.7061 83° East 328 377 11,500 -927 Descending Indianapolis Center
Tue 11:19:27 PM 39.8417 -86.5908 83° East 324 373 10,100 -1,512 Descending Indianapolis Center
Tue 11:20:28 PM 39.8508 -86.4861 83° East 298 343 8,400 -1,623 Descending Indianapolis Center
Tue 11:21:29 PM 39.8608 -86.3844 83° East 284 327 6,800 -1,605 Descending Indianapolis Center
Tue 11:21:54 PM 39.8667 -86.3333 82° East 275 316 6,100 -1,714 Descending Indianapolis TRACON
Tue 11:23:00 PM 39.8667 -86.2333 90° East 269 310 4,200 -1,524 Descending Indianapolis TRACON
Tue 11:24:00 PM 39.8167 -86.2000 153° Southeast 224 258 2,900 -1,050 Descending Indianapolis TRACON
Tue 11:25:00 PM 39.7833 -86.2333 218° Southwest 165 190 2,100 -750 Descending Indianapolis TRACON
Tue 11:26:00 PM 39.7500 -86.2667 218° Southwest 121 139 1,400 -542 Descending Indianapolis TRACON
Tue 11:27:35 PM 39.7175 -86.3061 223° Southwest 129 148 700 -442 Descending Indianapolis Center

Login

Don't have an account? Register now (free) for customized features, flight alerts, and more!